sensor_id;sensor_type;location;lat;lon;timestamp;temperature;humidity
84983;DHT22;75295;45.426;9.696;2024-02-26T00:01:49;11.70;77.70
84983;DHT22;75295;45.426;9.696;2024-02-26T00:04:15;11.80;78.00
84983;DHT22;75295;45.426;9.696;2024-02-26T00:06:43;11.70;78.30
84983;DHT22;75295;45.426;9.696;2024-02-26T00:09:10;11.60;78.70
84983;DHT22;75295;45.426;9.696;2024-02-26T00:11:37;11.70;78.80
84983;DHT22;75295;45.426;9.696;2024-02-26T00:14:04;11.70;78.50
84983;DHT22;75295;45.426;9.696;2024-02-26T00:16:31;11.70;78.40
84983;DHT22;75295;45.426;9.696;2024-02-26T00:18:58;11.70;78.40
84983;DHT22;75295;45.426;9.696;2024-02-26T00:21:25;11.70;78.50
84983;DHT22;75295;45.426;9.696;2024-02-26T00:23:53;11.60;79.10
84983;DHT22;75295;45.426;9.696;2024-02-26T00:26:20;11.50;79.30
84983;DHT22;75295;45.426;9.696;2024-02-26T00:28:46;11.40;79.60
84983;DHT22;75295;45.426;9.696;2024-02-26T00:31:13;11.20;79.90
84983;DHT22;75295;45.426;9.696;2024-02-26T00:33:40;11.20;80.00
84983;DHT22;75295;45.426;9.696;2024-02-26T00:36:07;11.20;80.40
84983;DHT22;75295;45.426;9.696;2024-02-26T00:38:33;11.10;80.60
84983;DHT22;75295;45.426;9.696;2024-02-26T00:41:01;11.00;80.80
84983;DHT22;75295;45.426;9.696;2024-02-26T00:43:28;10.90;80.70
84983;DHT22;75295;45.426;9.696;2024-02-26T00:45:54;10.90;81.00
84983;DHT22;75295;45.426;9.696;2024-02-26T00:48:21;11.00;81.00
84983;DHT22;75295;45.426;9.696;2024-02-26T00:50:48;11.10;80.70
84983;DHT22;75295;45.426;9.696;2024-02-26T00:53:15;11.20;80.40
84983;DHT22;75295;45.426;9.696;2024-02-26T00:55:42;11.20;80.20
84983;DHT22;75295;45.426;9.696;2024-02-26T00:58:09;11.10;80.50
84983;DHT22;75295;45.426;9.696;2024-02-26T01:00:37;11.00;80.50
84983;DHT22;75295;45.426;9.696;2024-02-26T01:03:04;11.00;80.60
84983;DHT22;75295;45.426;9.696;2024-02-26T01:05:31;11.00;80.60
84983;DHT22;75295;45.426;9.696;2024-02-26T01:07:58;11.10;80.50
84983;DHT22;75295;45.426;9.696;2024-02-26T01:10:25;11.10;80.40
84983;DHT22;75295;45.426;9.696;2024-02-26T01:12:52;11.10;81.00
84983;DHT22;75295;45.426;9.696;2024-02-26T01:15:19;11.10;80.40
84983;DHT22;75295;45.426;9.696;2024-02-26T01:17:50;11.10;80.40
84983;DHT22;75295;45.426;9.696;2024-02-26T01:20:17;11.00;80.40
84983;DHT22;75295;45.426;9.696;2024-02-26T01:22:44;11.00;80.60
84983;DHT22;75295;45.426;9.696;2024-02-26T01:25:12;11.00;80.70
84983;DHT22;75295;45.426;9.696;2024-02-26T01:27:39;11.10;81.50
84983;DHT22;75295;45.426;9.696;2024-02-26T01:30:08;11.10;81.50
84983;DHT22;75295;45.426;9.696;2024-02-26T01:32:36;11.10;80.40
84983;DHT22;75295;45.426;9.696;2024-02-26T01:35:03;11.10;80.70
84983;DHT22;75295;45.426;9.696;2024-02-26T01:37:30;11.00;80.70
84983;DHT22;75295;45.426;9.696;2024-02-26T01:39:57;11.10;80.80
84983;DHT22;75295;45.426;9.696;2024-02-26T01:42:23;11.20;80.40
84983;DHT22;75295;45.426;9.696;2024-02-26T01:44:50;11.10;80.10
84983;DHT22;75295;45.426;9.696;2024-02-26T01:47:18;11.20;79.80
84983;DHT22;75295;45.426;9.696;2024-02-26T01:49:45;11.20;79.30
84983;DHT22;75295;45.426;9.696;2024-02-26T01:52:12;11.20;79.00
84983;DHT22;75295;45.426;9.696;2024-02-26T01:54:39;11.20;78.70
84983;DHT22;75295;45.426;9.696;2024-02-26T01:57:08;11.10;78.80
84983;DHT22;75295;45.426;9.696;2024-02-26T01:59:35;11.10;78.50
84983;DHT22;75295;45.426;9.696;2024-02-26T02:02:06;11.00;78.70
84983;DHT22;75295;45.426;9.696;2024-02-26T02:04:38;11.10;78.80
84983;DHT22;75295;45.426;9.696;2024-02-26T02:07:05;11.10;79.00
84983;DHT22;75295;45.426;9.696;2024-02-26T02:09:32;11.10;78.80
84983;DHT22;75295;45.426;9.696;2024-02-26T02:12:00;11.20;78.70
84983;DHT22;75295;45.426;9.696;2024-02-26T02:14:27;11.20;78.60
84983;DHT22;75295;45.426;9.696;2024-02-26T02:16:53;11.20;78.60
84983;DHT22;75295;45.426;9.696;2024-02-26T02:19:20;11.10;78.70
84983;DHT22;75295;45.426;9.696;2024-02-26T02:21:47;11.10;78.60
84983;DHT22;75295;45.426;9.696;2024-02-26T02:24:14;11.00;78.40
84983;DHT22;75295;45.426;9.696;2024-02-26T02:26:41;10.90;78.50
84983;DHT22;75295;45.426;9.696;2024-02-26T02:29:08;10.90;79.10
84983;DHT22;75295;45.426;9.696;2024-02-26T02:31:35;10.80;79.30
84983;DHT22;75295;45.426;9.696;2024-02-26T02:34:02;10.80;79.40
84983;DHT22;75295;45.426;9.696;2024-02-26T02:36:29;10.70;79.10
84983;DHT22;75295;45.426;9.696;2024-02-26T02:38:56;10.70;79.50
84983;DHT22;75295;45.426;9.696;2024-02-26T02:41:23;10.70;79.60
84983;DHT22;75295;45.426;9.696;2024-02-26T02:43:50;10.60;79.90
84983;DHT22;75295;45.426;9.696;2024-02-26T02:46:17;10.70;80.20
84983;DHT22;75295;45.426;9.696;2024-02-26T02:48:44;10.70;80.00
84983;DHT22;75295;45.426;9.696;2024-02-26T02:51:11;10.80;79.80
84983;DHT22;75295;45.426;9.696;2024-02-26T02:53:38;10.70;79.80
84983;DHT22;75295;45.426;9.696;2024-02-26T02:56:05;10.70;79.80
84983;DHT22;75295;45.426;9.696;2024-02-26T02:58:32;10.70;79.70
84983;DHT22;75295;45.426;9.696;2024-02-26T03:00:58;10.70;79.60
84983;DHT22;75295;45.426;9.696;2024-02-26T03:03:27;10.70;79.90
84983;DHT22;75295;45.426;9.696;2024-02-26T03:05:55;10.80;79.70
84983;DHT22;75295;45.426;9.696;2024-02-26T03:08:21;10.80;79.50
84983;DHT22;75295;45.426;9.696;2024-02-26T03:10:48;10.90;79.20
84983;DHT22;75295;45.426;9.696;2024-02-26T03:13:16;10.90;79.10
84983;DHT22;75295;45.426;9.696;2024-02-26T03:15:43;10.80;79.20
84983;DHT22;75295;45.426;9.696;2024-02-26T03:18:09;10.90;79.30
84983;DHT22;75295;45.426;9.696;2024-02-26T03:20:36;10.90;79.20
84983;DHT22;75295;45.426;9.696;2024-02-26T03:23:03;10.90;79.30
84983;DHT22;75295;45.426;9.696;2024-02-26T03:25:30;10.90;79.20
84983;DHT22;75295;45.426;9.696;2024-02-26T03:27:57;11.00;79.40
84983;DHT22;75295;45.426;9.696;2024-02-26T03:30:24;10.90;79.40
84983;DHT22;75295;45.426;9.696;2024-02-26T03:32:50;10.90;79.60
84983;DHT22;75295;45.426;9.696;2024-02-26T03:35:17;10.90;80.00
84983;DHT22;75295;45.426;9.696;2024-02-26T03:37:46;10.80;80.10
84983;DHT22;75295;45.426;9.696;2024-02-26T03:40:13;10.70;80.50
84983;DHT22;75295;45.426;9.696;2024-02-26T03:42:40;10.70;80.80
84983;DHT22;75295;45.426;9.696;2024-02-26T03:45:07;10.60;81.00
84983;DHT22;75295;45.426;9.696;2024-02-26T03:47:37;10.50;81.10
84983;DHT22;75295;45.426;9.696;2024-02-26T03:50:05;10.50;81.50
84983;DHT22;75295;45.426;9.696;2024-02-26T03:52:33;10.50;81.90
84983;DHT22;75295;45.426;9.696;2024-02-26T03:55:00;10.50;82.20
84983;DHT22;75295;45.426;9.696;2024-02-26T03:57:26;10.50;82.10
84983;DHT22;75295;45.426;9.696;2024-02-26T03:59:53;10.60;82.00
84983;DHT22;75295;45.426;9.696;2024-02-26T04:02:20;10.60;81.80
84983;DHT22;75295;45.426;9.696;2024-02-26T04:04:47;10.60;81.60
84983;DHT22;75295;45.426;9.696;2024-02-26T04:07:14;10.70;81.60
84983;DHT22;75295;45.426;9.696;2024-02-26T04:09:41;10.70;81.40
84983;DHT22;75295;45.426;9.696;2024-02-26T04:12:09;10.70;81.40
84983;DHT22;75295;45.426;9.696;2024-02-26T04:14:36;10.80;81.70
84983;DHT22;75295;45.426;9.696;2024-02-26T04:17:03;10.80;81.60
84983;DHT22;75295;45.426;9.696;2024-02-26T04:19:30;10.90;81.50
84983;DHT22;75295;45.426;9.696;2024-02-26T04:21:56;11.00;81.30
84983;DHT22;75295;45.426;9.696;2024-02-26T04:24:23;11.10;81.20
84983;DHT22;75295;45.426;9.696;2024-02-26T04:26:50;11.10;80.80
84983;DHT22;75295;45.426;9.696;2024-02-26T04:29:17;11.10;80.60
84983;DHT22;75295;45.426;9.696;2024-02-26T04:31:44;10.90;80.80
84983;DHT22;75295;45.426;9.696;2024-02-26T04:34:12;10.90;81.00
84983;DHT22;75295;45.426;9.696;2024-02-26T04:36:39;10.90;81.20
84983;DHT22;75295;45.426;9.696;2024-02-26T04:39:06;11.00;81.20
84983;DHT22;75295;45.426;9.696;2024-02-26T04:41:33;11.00;81.20
84983;DHT22;75295;45.426;9.696;2024-02-26T04:44:00;11.00;81.20
84983;DHT22;75295;45.426;9.696;2024-02-26T04:46:27;11.00;81.20
84983;DHT22;75295;45.426;9.696;2024-02-26T04:48:54;10.90;81.30
84983;DHT22;75295;45.426;9.696;2024-02-26T04:51:21;10.90;81.30
84983;DHT22;75295;45.426;9.696;2024-02-26T04:53:48;10.90;81.50
84983;DHT22;75295;45.426;9.696;2024-02-26T04:56:15;11.00;81.50
84983;DHT22;75295;45.426;9.696;2024-02-26T04:58:42;11.00;81.50
84983;DHT22;75295;45.426;9.696;2024-02-26T05:01:09;11.00;81.40
84983;DHT22;75295;45.426;9.696;2024-02-26T05:03:37;11.00;81.50
84983;DHT22;75295;45.426;9.696;2024-02-26T05:06:05;11.00;81.60
84983;DHT22;75295;45.426;9.696;2024-02-26T05:08:31;11.00;81.80
84983;DHT22;75295;45.426;9.696;2024-02-26T05:11:00;10.90;82.00
84983;DHT22;75295;45.426;9.696;2024-02-26T05:13:27;10.90;82.30
84983;DHT22;75295;45.426;9.696;2024-02-26T05:15:53;10.80;82.40
84983;DHT22;75295;45.426;9.696;2024-02-26T05:18:22;10.80;83.20
84983;DHT22;75295;45.426;9.696;2024-02-26T05:20:49;10.80;82.60
84983;DHT22;75295;45.426;9.696;2024-02-26T05:23:15;10.90;82.70
84983;DHT22;75295;45.426;9.696;2024-02-26T05:25:42;10.80;82.50
84983;DHT22;75295;45.426;9.696;2024-02-26T05:28:11;10.80;82.70
84983;DHT22;75295;45.426;9.696;2024-02-26T05:30:38;10.70;83.00
84983;DHT22;75295;45.426;9.696;2024-02-26T05:33:09;10.60;83.30
84983;DHT22;75295;45.426;9.696;2024-02-26T05:35:37;10.60;83.60
84983;DHT22;75295;45.426;9.696;2024-02-26T05:38:04;10.50;83.70
84983;DHT22;75295;45.426;9.696;2024-02-26T05:40:31;10.40;84.10
84983;DHT22;75295;45.426;9.696;2024-02-26T05:42:57;10.30;84.30
84983;DHT22;75295;45.426;9.696;2024-02-26T05:45:24;10.30;84.60
84983;DHT22;75295;45.426;9.696;2024-02-26T05:47:51;10.30;84.70
84983;DHT22;75295;45.426;9.696;2024-02-26T05:50:18;10.30;84.90
84983;DHT22;75295;45.426;9.696;2024-02-26T05:52:44;10.30;85.00
84983;DHT22;75295;45.426;9.696;2024-02-26T05:55:11;10.30;85.10
84983;DHT22;75295;45.426;9.696;2024-02-26T05:57:40;10.30;85.20
84983;DHT22;75295;45.426;9.696;2024-02-26T06:00:08;10.30;85.30
84983;DHT22;75295;45.426;9.696;2024-02-26T06:02:40;10.30;85.40
84983;DHT22;75295;45.426;9.696;2024-02-26T06:05:07;10.30;85.50
84983;DHT22;75295;45.426;9.696;2024-02-26T06:07:35;10.30;85.60
84983;DHT22;75295;45.426;9.696;2024-02-26T06:10:02;10.30;85.50
84983;DHT22;75295;45.426;9.696;2024-02-26T06:12:31;10.30;85.40
84983;DHT22;75295;45.426;9.696;2024-02-26T06:14:57;10.20;85.60
84983;DHT22;75295;45.426;9.696;2024-02-26T06:17:27;10.20;86.00
84983;DHT22;75295;45.426;9.696;2024-02-26T06:19:54;10.20;86.40
84983;DHT22;75295;45.426;9.696;2024-02-26T06:22:21;10.10;86.30
84983;DHT22;75295;45.426;9.696;2024-02-26T06:24:48;10.10;86.40
84983;DHT22;75295;45.426;9.696;2024-02-26T06:27:15;10.10;86.60
84983;DHT22;75295;45.426;9.696;2024-02-26T06:29:42;10.10;86.50
84983;DHT22;75295;45.426;9.696;2024-02-26T06:32:09;10.20;86.30
84983;DHT22;75295;45.426;9.696;2024-02-26T06:34:36;10.10;86.30
84983;DHT22;75295;45.426;9.696;2024-02-26T06:37:04;10.00;86.50
84983;DHT22;75295;45.426;9.696;2024-02-26T06:39:31;10.00;86.90
84983;DHT22;75295;45.426;9.696;2024-02-26T06:41:58;9.90;86.90
84983;DHT22;75295;45.426;9.696;2024-02-26T06:44:28;9.90;87.20
84983;DHT22;75295;45.426;9.696;2024-02-26T06:47:01;9.90;87.50
84983;DHT22;75295;45.426;9.696;2024-02-26T06:49:28;9.80;87.90
84983;DHT22;75295;45.426;9.696;2024-02-26T06:51:55;9.70;88.20
84983;DHT22;75295;45.426;9.696;2024-02-26T06:54:22;9.70;88.50
84983;DHT22;75295;45.426;9.696;2024-02-26T06:56:48;9.60;88.70
84983;DHT22;75295;45.426;9.696;2024-02-26T06:59:15;9.50;88.90
84983;DHT22;75295;45.426;9.696;2024-02-26T07:01:42;9.50;89.40
84983;DHT22;75295;45.426;9.696;2024-02-26T07:04:09;9.40;89.70
84983;DHT22;75295;45.426;9.696;2024-02-26T07:06:37;9.30;89.90
84983;DHT22;75295;45.426;9.696;2024-02-26T07:09:04;9.40;90.00
84983;DHT22;75295;45.426;9.696;2024-02-26T07:11:30;9.50;89.90
84983;DHT22;75295;45.426;9.696;2024-02-26T07:13:57;9.50;89.90
84983;DHT22;75295;45.426;9.696;2024-02-26T07:16:24;9.50;90.00
84983;DHT22;75295;45.426;9.696;2024-02-26T07:18:51;9.40;89.80
84983;DHT22;75295;45.426;9.696;2024-02-26T07:21:17;9.30;89.80
84983;DHT22;75295;45.426;9.696;2024-02-26T07:23:44;9.40;90.00
84983;DHT22;75295;45.426;9.696;2024-02-26T07:26:11;9.40;90.00
84983;DHT22;75295;45.426;9.696;2024-02-26T07:28:38;9.50;89.90
84983;DHT22;75295;45.426;9.696;2024-02-26T07:31:05;9.50;89.80
84983;DHT22;75295;45.426;9.696;2024-02-26T07:33:31;9.60;89.70
84983;DHT22;75295;45.426;9.696;2024-02-26T07:35:58;9.60;89.60
84983;DHT22;75295;45.426;9.696;2024-02-26T07:38:25;9.70;89.50
84983;DHT22;75295;45.426;9.696;2024-02-26T07:40:52;9.70;89.20
84983;DHT22;75295;45.426;9.696;2024-02-26T07:43:19;9.70;89.30
84983;DHT22;75295;45.426;9.696;2024-02-26T07:45:46;9.70;89.40
84983;DHT22;75295;45.426;9.696;2024-02-26T07:48:13;9.70;89.40
84983;DHT22;75295;45.426;9.696;2024-02-26T07:50:40;9.80;89.30
84983;DHT22;75295;45.426;9.696;2024-02-26T07:53:07;9.80;89.20
84983;DHT22;75295;45.426;9.696;2024-02-26T07:55:34;9.90;89.20
84983;DHT22;75295;45.426;9.696;2024-02-26T07:58:01;9.90;89.30
84983;DHT22;75295;45.426;9.696;2024-02-26T08:00:27;9.80;89.70
84983;DHT22;75295;45.426;9.696;2024-02-26T08:02:54;9.80;90.00
84983;DHT22;75295;45.426;9.696;2024-02-26T08:05:21;9.90;90.00
84983;DHT22;75295;45.426;9.696;2024-02-26T08:07:48;9.90;89.70
84983;DHT22;75295;45.426;9.696;2024-02-26T08:10:15;10.00;89.80
84983;DHT22;75295;45.426;9.696;2024-02-26T08:12:41;10.00;89.70
84983;DHT22;75295;45.426;9.696;2024-02-26T08:15:08;9.90;89.70
84983;DHT22;75295;45.426;9.696;2024-02-26T08:17:35;9.90;89.70
84983;DHT22;75295;45.426;9.696;2024-02-26T08:20:02;9.90;89.80
84983;DHT22;75295;45.426;9.696;2024-02-26T08:22:30;9.90;89.80
84983;DHT22;75295;45.426;9.696;2024-02-26T08:24:56;10.00;89.60
84983;DHT22;75295;45.426;9.696;2024-02-26T08:27:23;10.10;89.30
84983;DHT22;75295;45.426;9.696;2024-02-26T08:29:49;10.00;89.00
84983;DHT22;75295;45.426;9.696;2024-02-26T08:32:16;10.00;89.20
84983;DHT22;75295;45.426;9.696;2024-02-26T08:34:43;9.90;89.40
84983;DHT22;75295;45.426;9.696;2024-02-26T08:37:10;9.90;89.80
84983;DHT22;75295;45.426;9.696;2024-02-26T08:39:36;10.00;89.90
84983;DHT22;75295;45.426;9.696;2024-02-26T08:42:05;10.10;89.60
84983;DHT22;75295;45.426;9.696;2024-02-26T08:44:32;10.10;89.40
84983;DHT22;75295;45.426;9.696;2024-02-26T08:46:59;10.10;89.30
84983;DHT22;75295;45.426;9.696;2024-02-26T08:49:26;10.20;89.10
84983;DHT22;75295;45.426;9.696;2024-02-26T08:51:53;10.30;88.80
84983;DHT22;75295;45.426;9.696;2024-02-26T08:54:19;10.20;89.00
84983;DHT22;75295;45.426;9.696;2024-02-26T08:56:46;10.30;88.80
84983;DHT22;75295;45.426;9.696;2024-02-26T08:59:13;10.40;88.70
84983;DHT22;75295;45.426;9.696;2024-02-26T09:01:42;10.50;88.30
84983;DHT22;75295;45.426;9.696;2024-02-26T09:04:09;10.70;88.00
84983;DHT22;75295;45.426;9.696;2024-02-26T09:06:35;10.80;87.90
84983;DHT22;75295;45.426;9.696;2024-02-26T09:09:02;11.00;86.80
84983;DHT22;75295;45.426;9.696;2024-02-26T09:11:30;11.10;86.10
84983;DHT22;75295;45.426;9.696;2024-02-26T09:13:57;11.10;85.30
84983;DHT22;75295;45.426;9.696;2024-02-26T09:16:24;11.10;85.30
84983;DHT22;75295;45.426;9.696;2024-02-26T09:18:51;11.20;85.50
84983;DHT22;75295;45.426;9.696;2024-02-26T09:21:18;11.20;85.50
84983;DHT22;75295;45.426;9.696;2024-02-26T09:23:52;11.20;85.20
84983;DHT22;75295;45.426;9.696;2024-02-26T09:26:19;11.20;85.10
84983;DHT22;75295;45.426;9.696;2024-02-26T09:28:46;11.20;85.60
84983;DHT22;75295;45.426;9.696;2024-02-26T09:31:13;11.30;84.90
84983;DHT22;75295;45.426;9.696;2024-02-26T09:33:43;11.30;84.80
84983;DHT22;75295;45.426;9.696;2024-02-26T09:36:10;11.30;85.10
84983;DHT22;75295;45.426;9.696;2024-02-26T09:38:37;11.30;85.10
84983;DHT22;75295;45.426;9.696;2024-02-26T09:41:05;11.30;85.00
84983;DHT22;75295;45.426;9.696;2024-02-26T09:43:35;11.30;84.90
84983;DHT22;75295;45.426;9.696;2024-02-26T09:46:08;11.30;84.90
84983;DHT22;75295;45.426;9.696;2024-02-26T09:48:35;11.30;85.00
84983;DHT22;75295;45.426;9.696;2024-02-26T09:51:04;11.30;84.80
84983;DHT22;75295;45.426;9.696;2024-02-26T09:53:32;11.20;84.60
84983;DHT22;75295;45.426;9.696;2024-02-26T09:55:58;11.30;84.90
84983;DHT22;75295;45.426;9.696;2024-02-26T09:58:27;11.20;85.10
84983;DHT22;75295;45.426;9.696;2024-02-26T10:00:57;11.30;85.30
84983;DHT22;75295;45.426;9.696;2024-02-26T10:03:31;11.30;85.10
84983;DHT22;75295;45.426;9.696;2024-02-26T10:06:01;11.30;84.90
84983;DHT22;75295;45.426;9.696;2024-02-26T10:08:30;11.40;85.00
84983;DHT22;75295;45.426;9.696;2024-02-26T10:10:57;11.40;85.00
84983;DHT22;75295;45.426;9.696;2024-02-26T10:13:25;11.30;84.80
84983;DHT22;75295;45.426;9.696;2024-02-26T10:15:52;11.30;85.50
84983;DHT22;75295;45.426;9.696;2024-02-26T10:18:19;11.20;85.00
84983;DHT22;75295;45.426;9.696;2024-02-26T10:21:06;11.10;85.40
84983;DHT22;75295;45.426;9.696;2024-02-26T10:23:33;11.00;85.80
84983;DHT22;75295;45.426;9.696;2024-02-26T10:26:00;11.00;85.90
84983;DHT22;75295;45.426;9.696;2024-02-26T10:28:29;10.90;85.90
84983;DHT22;75295;45.426;9.696;2024-02-26T10:30:56;10.90;86.30
84983;DHT22;75295;45.426;9.696;2024-02-26T10:33:23;10.90;86.60
84983;DHT22;75295;45.426;9.696;2024-02-26T10:35:51;10.90;86.40
84983;DHT22;75295;45.426;9.696;2024-02-26T10:38:20;10.90;86.50
84983;DHT22;75295;45.426;9.696;2024-02-26T10:40:49;10.90;86.70
84983;DHT22;75295;45.426;9.696;2024-02-26T10:43:16;10.80;86.90
84983;DHT22;75295;45.426;9.696;2024-02-26T10:45:44;10.80;87.30
84983;DHT22;75295;45.426;9.696;2024-02-26T10:48:13;10.70;87.80
84983;DHT22;75295;45.426;9.696;2024-02-26T10:50:41;10.60;88.20
84983;DHT22;75295;45.426;9.696;2024-02-26T10:53:13;10.60;88.30
84983;DHT22;75295;45.426;9.696;2024-02-26T10:56:01;10.70;88.30
84983;DHT22;75295;45.426;9.696;2024-02-26T10:58:31;10.80;87.80
84983;DHT22;75295;45.426;9.696;2024-02-26T11:00:58;10.70;87.60
84983;DHT22;75295;45.426;9.696;2024-02-26T11:03:26;10.70;87.60
84983;DHT22;75295;45.426;9.696;2024-02-26T11:05:53;10.80;87.70
84983;DHT22;75295;45.426;9.696;2024-02-26T11:08:21;10.70;87.40
84983;DHT22;75295;45.426;9.696;2024-02-26T11:10:48;10.80;87.20
84983;DHT22;75295;45.426;9.696;2024-02-26T11:13:18;10.70;86.90
84983;DHT22;75295;45.426;9.696;2024-02-26T11:15:46;10.80;86.90
84983;DHT22;75295;45.426;9.696;2024-02-26T11:18:19;10.90;87.00
84983;DHT22;75295;45.426;9.696;2024-02-26T11:20:46;10.90;86.70
84983;DHT22;75295;45.426;9.696;2024-02-26T11:23:14;11.10;86.40
84983;DHT22;75295;45.426;9.696;2024-02-26T11:25:41;11.10;86.00
84983;DHT22;75295;45.426;9.696;2024-02-26T11:28:15;11.10;85.30
84983;DHT22;75295;45.426;9.696;2024-02-26T11:30:46;11.10;85.20
84983;DHT22;75295;45.426;9.696;2024-02-26T11:33:15;11.20;85.50
84983;DHT22;75295;45.426;9.696;2024-02-26T11:35:42;11.10;85.40
84983;DHT22;75295;45.426;9.696;2024-02-26T11:38:20;11.00;86.00
84983;DHT22;75295;45.426;9.696;2024-02-26T11:40:48;10.90;86.40
84983;DHT22;75295;45.426;9.696;2024-02-26T11:43:16;10.80;86.60
84983;DHT22;75295;45.426;9.696;2024-02-26T11:48:21;10.90;86.90
84983;DHT22;75295;45.426;9.696;2024-02-26T11:50:51;10.90;86.60
84983;DHT22;75295;45.426;9.696;2024-02-26T11:53:32;10.90;86.50
84983;DHT22;75295;45.426;9.696;2024-02-26T11:56:21;10.90;86.50
84983;DHT22;75295;45.426;9.696;2024-02-26T11:59:09;10.90;86.60
84983;DHT22;75295;45.426;9.696;2024-02-26T12:04:24;10.70;86.40
84983;DHT22;75295;45.426;9.696;2024-02-26T12:07:02;10.70;86.50
84983;DHT22;75295;45.426;9.696;2024-02-26T12:09:36;10.70;86.60
84983;DHT22;75295;45.426;9.696;2024-02-26T12:12:07;10.60;86.80
84983;DHT22;75295;45.426;9.696;2024-02-26T12:14:51;10.60;86.90
84983;DHT22;75295;45.426;9.696;2024-02-26T12:17:25;10.60;86.50
84983;DHT22;75295;45.426;9.696;2024-02-26T12:19:52;10.50;86.80
84983;DHT22;75295;45.426;9.696;2024-02-26T12:22:20;10.50;87.30
84983;DHT22;75295;45.426;9.696;2024-02-26T12:24:46;10.40;86.80
84983;DHT22;75295;45.426;9.696;2024-02-26T12:27:13;10.40;86.40
84983;DHT22;75295;45.426;9.696;2024-02-26T12:29:41;10.40;85.80
84983;DHT22;75295;45.426;9.696;2024-02-26T12:32:08;10.40;86.60
84983;DHT22;75295;45.426;9.696;2024-02-26T12:34:35;10.40;86.30
84983;DHT22;75295;45.426;9.696;2024-02-26T12:37:02;10.40;85.20
84983;DHT22;75295;45.426;9.696;2024-02-26T12:39:29;10.30;84.90
84983;DHT22;75295;45.426;9.696;2024-02-26T12:41:58;10.30;84.90
84983;DHT22;75295;45.426;9.696;2024-02-26T12:44:26;10.30;84.80
84983;DHT22;75295;45.426;9.696;2024-02-26T12:47:00;10.30;85.00
84983;DHT22;75295;45.426;9.696;2024-02-26T12:49:29;10.40;84.60
84983;DHT22;75295;45.426;9.696;2024-02-26T12:51:55;10.50;84.10
84983;DHT22;75295;45.426;9.696;2024-02-26T12:54:32;10.50;83.60
84983;DHT22;75295;45.426;9.696;2024-02-26T12:57:01;10.50;82.90
84983;DHT22;75295;45.426;9.696;2024-02-26T12:59:30;10.50;82.80
84983;DHT22;75295;45.426;9.696;2024-02-26T13:01:57;10.50;82.80
84983;DHT22;75295;45.426;9.696;2024-02-26T13:04:25;10.60;83.10
84983;DHT22;75295;45.426;9.696;2024-02-26T13:06:53;10.60;82.90
84983;DHT22;75295;45.426;9.696;2024-02-26T13:09:20;10.70;82.80
84983;DHT22;75295;45.426;9.696;2024-02-26T13:11:55;10.60;82.50
84983;DHT22;75295;45.426;9.696;2024-02-26T13:14:22;10.60;82.60
84983;DHT22;75295;45.426;9.696;2024-02-26T13:16:56;10.60;82.50
84983;DHT22;75295;45.426;9.696;2024-02-26T13:19:23;10.60;82.60
84983;DHT22;75295;45.426;9.696;2024-02-26T13:21:50;10.70;82.30
84983;DHT22;75295;45.426;9.696;2024-02-26T13:24:19;10.60;82.40
84983;DHT22;75295;45.426;9.696;2024-02-26T13:26:46;10.70;83.00
84983;DHT22;75295;45.426;9.696;2024-02-26T13:29:19;10.70;83.20
84983;DHT22;75295;45.426;9.696;2024-02-26T13:31:46;10.60;83.10
84983;DHT22;75295;45.426;9.696;2024-02-26T13:34:28;10.70;83.40
84983;DHT22;75295;45.426;9.696;2024-02-26T13:36:57;10.70;83.60
84983;DHT22;75295;45.426;9.696;2024-02-26T13:39:24;10.70;83.50
84983;DHT22;75295;45.426;9.696;2024-02-26T13:41:52;10.70;83.70
84983;DHT22;75295;45.426;9.696;2024-02-26T13:44:20;10.70;83.70
84983;DHT22;75295;45.426;9.696;2024-02-26T13:46:48;10.70;84.40
84983;DHT22;75295;45.426;9.696;2024-02-26T13:49:15;10.70;83.80
84983;DHT22;75295;45.426;9.696;2024-02-26T13:51:42;10.70;83.90
84983;DHT22;75295;45.426;9.696;2024-02-26T13:54:08;10.70;84.10
84983;DHT22;75295;45.426;9.696;2024-02-26T13:56:40;10.60;84.50
84983;DHT22;75295;45.426;9.696;2024-02-26T13:59:06;10.50;85.00
84983;DHT22;75295;45.426;9.696;2024-02-26T14:01:33;10.50;85.50
84983;DHT22;75295;45.426;9.696;2024-02-26T14:04:00;10.40;86.10
84983;DHT22;75295;45.426;9.696;2024-02-26T14:06:28;10.40;86.90
84983;DHT22;75295;45.426;9.696;2024-02-26T14:08:57;10.40;87.20
84983;DHT22;75295;45.426;9.696;2024-02-26T14:11:24;10.30;87.30
84983;DHT22;75295;45.426;9.696;2024-02-26T14:13:51;10.30;87.50
84983;DHT22;75295;45.426;9.696;2024-02-26T14:16:18;10.30;87.60
84983;DHT22;75295;45.426;9.696;2024-02-26T14:18:46;10.20;87.90
84983;DHT22;75295;45.426;9.696;2024-02-26T14:21:13;10.20;88.00
84983;DHT22;75295;45.426;9.696;2024-02-26T14:23:40;10.20;87.90
84983;DHT22;75295;45.426;9.696;2024-02-26T14:26:06;10.20;88.00
84983;DHT22;75295;45.426;9.696;2024-02-26T14:28:33;10.30;88.00
84983;DHT22;75295;45.426;9.696;2024-02-26T14:31:00;10.20;87.80
84983;DHT22;75295;45.426;9.696;2024-02-26T14:33:27;10.20;88.00
84983;DHT22;75295;45.426;9.696;2024-02-26T14:35:53;10.20;88.70
84983;DHT22;75295;45.426;9.696;2024-02-26T14:38:20;10.10;88.60
84983;DHT22;75295;45.426;9.696;2024-02-26T14:40:47;10.10;88.60
84983;DHT22;75295;45.426;9.696;2024-02-26T14:43:13;10.20;88.60
84983;DHT22;75295;45.426;9.696;2024-02-26T14:45:40;10.20;88.50
84983;DHT22;75295;45.426;9.696;2024-02-26T14:48:07;10.20;88.10
84983;DHT22;75295;45.426;9.696;2024-02-26T14:50:35;10.30;87.70
84983;DHT22;75295;45.426;9.696;2024-02-26T14:53:02;10.30;87.40
84983;DHT22;75295;45.426;9.696;2024-02-26T14:55:29;10.40;87.10
84983;DHT22;75295;45.426;9.696;2024-02-26T14:57:55;10.40;86.80
84983;DHT22;75295;45.426;9.696;2024-02-26T15:00:22;10.30;86.80
84983;DHT22;75295;45.426;9.696;2024-02-26T15:02:49;10.30;87.00
84983;DHT22;75295;45.426;9.696;2024-02-26T15:05:18;10.40;87.20
84983;DHT22;75295;45.426;9.696;2024-02-26T15:07:46;10.50;87.10
84983;DHT22;75295;45.426;9.696;2024-02-26T15:10:12;10.50;86.60
84983;DHT22;75295;45.426;9.696;2024-02-26T15:12:40;10.60;86.30
84983;DHT22;75295;45.426;9.696;2024-02-26T15:15:07;10.70;86.20
84983;DHT22;75295;45.426;9.696;2024-02-26T15:17:34;10.70;85.50
84983;DHT22;75295;45.426;9.696;2024-02-26T15:20:03;10.60;85.40
84983;DHT22;75295;45.426;9.696;2024-02-26T15:22:31;10.50;85.60
84983;DHT22;75295;45.426;9.696;2024-02-26T15:24:58;10.60;85.70
84983;DHT22;75295;45.426;9.696;2024-02-26T15:27:25;10.60;85.60
84983;DHT22;75295;45.426;9.696;2024-02-26T15:29:51;10.60;85.50
84983;DHT22;75295;45.426;9.696;2024-02-26T15:32:25;10.60;85.50
84983;DHT22;75295;45.426;9.696;2024-02-26T15:34:53;10.60;85.40
84983;DHT22;75295;45.426;9.696;2024-02-26T15:37:20;10.60;86.20
84983;DHT22;75295;45.426;9.696;2024-02-26T15:39:48;10.60;85.60
84983;DHT22;75295;45.426;9.696;2024-02-26T15:42:14;10.70;85.70